Time,TemperatureF,DewpointF,PressureIn,WindDirection,WindDirectionDegrees,WindSpeedMPH,WindSpeedGustMPH,Humidity,HourlyPrecipIn,Conditions,Clouds,dailyrainin,SoftwareType,DateUTC
2013-07-08 00:00:00,48.3,46.9,29.61,North,0,0.0,-999.0,94,0.00,,,-99.99,,2013-07-08 08:00:00,
2013-07-08 00:05:00,48.2,46.8,29.61,North,0,0.0,-999.0,94,0.00,,,-99.99,,2013-07-08 08:05:00,
2013-07-08 00:10:00,48.4,47.1,29.61,North,0,0.0,-999.0,95,0.00,,,-99.99,,2013-07-08 08:10:00,
2013-07-08 00:14:00,48.0,46.7,29.61,North,0,0.0,-999.0,94,0.00,,,-99.99,,2013-07-08 08:14:00,
2013-07-08 00:19:00,48.0,46.7,29.61,North,0,0.0,-999.0,95,0.00,,,-99.99,,2013-07-08 08:19:00,
2013-07-08 00:24:00,48.0,46.8,29.61,North,0,0.0,-999.0,95,0.00,,,-99.99,,2013-07-08 08:24:00,
2013-07-08 00:29:00,47.8,46.6,29.61,North,0,0.0,-999.0,95,0.00,,,-99.99,,2013-07-08 08:29:00,
2013-07-08 00:35:00,47.8,46.6,29.61,North,0,0.0,-999.0,95,0.01,,,-99.99,,2013-07-08 08:35:00,
2013-07-08 00:40:00,47.8,46.6,29.61,North,0,0.0,-999.0,95,0.01,,,-99.99,,2013-07-08 08:40:00,
2013-07-08 00:44:00,48.0,46.9,29.61,North,0,0.0,-999.0,95,0.01,,,-99.99,,2013-07-08 08:44:00,
2013-07-08 00:49:00,48.4,47.4,29.61,North,0,0.0,-999.0,96,0.01,,,-99.99,,2013-07-08 08:49:00,
2013-07-08 00:55:00,48.5,47.3,29.61,North,0,0.0,-999.0,95,0.01,,,-99.99,,2013-07-08 08:55:00,
2013-07-08 01:00:00,48.1,47.0,29.62,North,0,0.0,-999.0,95,0.00,,,-99.99,,2013-07-08 09:00:00,
2013-07-08 01:04:00,48.1,47.0,29.62,North,0,0.0,-999.0,95,0.00,,,-99.99,,2013-07-08 09:04:00,
2013-07-08 01:10:00,48.0,46.9,29.62,North,0,0.0,-999.0,95,0.00,,,-99.99,,2013-07-08 09:10:00,
2013-07-08 01:14:00,47.9,46.8,29.62,North,0,0.0,-999.0,95,0.00,,,-99.99,,2013-07-08 09:14:00,
2013-07-08 01:19:00,48.3,47.2,29.62,North,0,0.0,-999.0,96,0.00,,,-99.99,,2013-07-08 09:19:00,
2013-07-08 01:24:00,48.1,47.0,29.62,North,0,0.0,-999.0,96,0.00,,,-99.99,,2013-07-08 09:24:00,
2013-07-08 01:30:00,48.1,47.2,29.62,North,0,0.0,-999.0,96,0.00,,,-99.99,,2013-07-08 09:30:00,
2013-07-08 01:35:00,48.2,47.2,29.62,North,0,0.0,-999.0,96,0.00,,,-99.99,,2013-07-08 09:35:00,
2013-07-08 01:39:00,48.1,47.0,29.62,North,0,0.0,-999.0,96,0.00,,,-99.99,,2013-07-08 09:39:00,
2013-07-08 01:44:00,48.1,47.1,29.62,North,0,0.0,-999.0,96,0.00,,,-99.99,,2013-07-08 09:44:00,
2013-07-08 01:49:00,48.1,47.1,29.62,North,0,0.0,-999.0,96,0.00,,,-99.99,,2013-07-08 09:49:00,
2013-07-08 01:54:00,48.0,47.0,29.62,North,0,0.0,-999.0,96,0.00,,,-99.99,,2013-07-08 09:54:00,
2013-07-08 02:00:00,47.9,46.8,29.63,North,0,0.0,-999.0,96,0.00,,,-99.99,,2013-07-08 10:00:00,
2013-07-08 02:04:00,47.9,46.9,29.63,North,0,0.0,-999.0,96,0.00,,,-99.99,,2013-07-08 10:04:00,
2013-07-08 02:10:00,48.0,47.0,29.63,North,0,0.0,-999.0,96,0.00,,,-99.99,,2013-07-08 10:10:00,
2013-07-08 02:15:00,48.3,47.5,29.63,North,0,0.0,-999.0,96,0.00,,,-99.99,,2013-07-08 10:15:00,
2013-07-08 02:20:00,48.5,47.6,29.63,North,0,0.0,-999.0,96,0.00,,,-99.99,,2013-07-08 10:20:00,
2013-07-08 02:26:00,48.2,47.2,29.63,North,0,0.0,-999.0,96,0.00,,,-99.99,,2013-07-08 10:26:00,
2013-07-08 02:30:00,48.2,47.2,29.63,North,0,0.0,-999.0,96,0.00,,,-99.99,,2013-07-08 10:30:00,
2013-07-08 02:36:00,48.0,47.0,29.63,North,0,0.0,-999.0,96,0.00,,,-99.99,,2013-07-08 10:36:00,
2013-07-08 02:41:00,47.9,46.9,29.63,North,0,0.0,-999.0,96,0.00,,,-99.99,,2013-07-08 10:41:00,
2013-07-08 02:46:00,48.1,47.2,29.63,North,0,0.0,-999.0,96,0.00,,,-99.99,,2013-07-08 10:46:00,
2013-07-08 02:51:00,48.1,47.1,29.63,North,0,0.0,-999.0,96,0.00,,,-99.99,,2013-07-08 10:51:00,
2013-07-08 02:57:00,48.1,47.2,29.63,North,0,0.0,-999.0,96,0.00,,,-99.99,,2013-07-08 10:57:00,
2013-07-08 03:01:00,48.3,47.3,29.64,North,0,0.0,-999.0,96,0.00,,,-99.99,,2013-07-08 11:01:00,
2013-07-08 03:06:00,48.4,47.5,29.64,North,0,0.0,-999.0,96,0.00,,,-99.99,,2013-07-08 11:06:00,
2013-07-08 03:11:00,48.4,47.5,29.64,North,0,0.0,-999.0,96,0.00,,,-99.99,,2013-07-08 11:11:00,
2013-07-08 03:16:00,48.5,47.6,29.64,North,0,0.0,-999.0,96,0.00,,,-99.99,,2013-07-08 11:16:00,
2013-07-08 03:21:00,48.8,48.0,29.64,North,0,0.0,-999.0,96,0.00,,,-99.99,,2013-07-08 11:21:00,
2013-07-08 03:26:00,48.6,47.7,29.64,North,0,0.0,-999.0,96,0.00,,,-99.99,,2013-07-08 11:26:00,
2013-07-08 03:31:00,48.2,47.2,29.64,North,0,0.0,-999.0,96,0.00,,,-99.99,,2013-07-08 11:31:00,
2013-07-08 03:36:00,48.2,47.2,29.64,North,0,0.0,-999.0,96,0.00,,,-99.99,,2013-07-08 11:36:00,
2013-07-08 03:41:00,48.3,47.3,29.64,North,0,0.0,-999.0,96,0.00,,,-99.99,,2013-07-08 11:41:00,
2013-07-08 03:47:00,48.2,47.3,29.64,North,0,0.0,-999.0,96,0.00,,,-99.99,,2013-07-08 11:47:00,
2013-07-08 03:51:00,48.1,47.2,29.64,North,0,0.0,-999.0,96,0.00,,,-99.99,,2013-07-08 11:51:00,
2013-07-08 03:56:00,48.0,47.1,29.64,North,0,0.0,-999.0,96,0.00,,,-99.99,,2013-07-08 11:56:00,
2013-07-08 04:01:00,48.0,47.1,29.65,North,0,0.0,-999.0,96,0.00,,,-99.99,,2013-07-08 12:01:00,
2013-07-08 04:06:00,48.0,47.1,29.65,North,0,0.0,-999.0,96,0.00,,,-99.99,,2013-07-08 12:06:00,
2013-07-08 04:11:00,48.1,47.3,29.65,North,0,0.0,-999.0,96,0.00,,,-99.99,,2013-07-08 12:11:00,
2013-07-08 04:16:00,48.0,47.1,29.65,North,0,0.0,-999.0,96,0.00,,,-99.99,,2013-07-08 12:16:00,
2013-07-08 04:22:00,47.7,46.7,29.65,North,0,0.0,-999.0,96,0.00,,,-99.99,,2013-07-08 12:22:00,
2013-07-08 04:26:00,47.3,46.4,29.65,North,0,0.0,-999.0,96,0.00,,,-99.99,,2013-07-08 12:26:00,
2013-07-08 04:31:00,47.5,46.6,29.65,North,0,0.0,-999.0,96,0.00,,,-99.99,,2013-07-08 12:31:00,
2013-07-08 04:36:00,47.3,46.5,29.65,North,0,0.0,-999.0,96,0.00,,,-99.99,,2013-07-08 12:36:00,
2013-07-08 04:42:00,47.2,46.3,29.65,North,0,0.0,-999.0,96,0.00,,,-99.99,,2013-07-08 12:42:00,
2013-07-08 04:46:00,47.2,46.3,29.65,North,0,0.0,-999.0,96,0.00,,,-99.99,,2013-07-08 12:46:00,
2013-07-08 04:52:00,47.1,46.2,29.65,North,0,0.0,-999.0,96,0.00,,,-99.99,,2013-07-08 12:52:00,
2013-07-08 04:56:00,47.3,46.5,29.65,North,0,0.0,-999.0,96,0.00,,,-99.99,,2013-07-08 12:56:00,
2013-07-08 05:01:00,47.3,46.5,29.65,North,0,0.0,-999.0,96,0.00,,,-99.99,,2013-07-08 13:01:00,
2013-07-08 05:06:00,47.2,46.3,29.65,North,0,0.0,-999.0,96,0.00,,,-99.99,,2013-07-08 13:06:00,
2013-07-08 05:11:00,47.3,46.5,29.65,North,0,0.0,-999.0,96,0.00,,,-99.99,,2013-07-08 13:11:00,
2013-07-08 05:16:00,47.2,46.4,29.65,North,0,0.0,-999.0,96,0.00,,,-99.99,,2013-07-08 13:16:00,
2013-07-08 05:21:00,47.6,46.8,29.65,North,0,0.0,-999.0,97,0.00,,,-99.99,,2013-07-08 13:21:00,
2013-07-08 05:26:00,47.5,46.6,29.65,North,0,0.0,-999.0,96,0.00,,,-99.99,,2013-07-08 13:26:00,
2013-07-08 05:31:00,47.1,46.2,29.65,North,0,0.0,-999.0,96,0.00,,,-99.99,,2013-07-08 13:31:00,
2013-07-08 05:36:00,47.2,46.4,29.65,North,0,0.0,-999.0,96,0.00,,,-99.99,,2013-07-08 13:36:00,
2013-07-08 05:41:00,47.2,46.4,29.65,North,0,0.0,-999.0,96,0.00,,,-99.99,,2013-07-08 13:41:00,
2013-07-08 05:46:00,47.3,46.5,29.65,North,0,0.0,-999.0,96,0.00,,,-99.99,,2013-07-08 13:46:00,
2013-07-08 05:51:00,47.3,46.5,29.65,North,0,0.0,-999.0,96,0.00,,,-99.99,,2013-07-08 13:51:00,
2013-07-08 05:56:00,47.4,46.6,29.65,North,0,0.0,-999.0,96,0.00,,,-99.99,,2013-07-08 13:56:00,
2013-07-08 06:01:00,47.3,46.5,29.66,North,0,0.0,-999.0,97,0.00,,,-99.99,,2013-07-08 14:01:00,
2013-07-08 06:06:00,47.5,46.7,29.66,North,0,0.0,-999.0,97,0.00,,,-99.99,,2013-07-08 14:06:00,
2013-07-08 06:11:00,47.5,46.7,29.66,North,0,0.0,-999.0,96,0.00,,,-99.99,,2013-07-08 14:11:00,
2013-07-08 06:17:00,47.5,46.7,29.66,North,0,0.0,-999.0,96,0.00,,,-99.99,,2013-07-08 14:17:00,
2013-07-08 06:22:00,47.8,47.0,29.66,North,0,0.0,-999.0,97,0.00,,,-99.99,,2013-07-08 14:22:00,
2013-07-08 06:27:00,47.7,46.9,29.66,North,0,0.0,-999.0,96,0.00,,,-99.99,,2013-07-08 14:27:00,
2013-07-08 06:32:00,47.7,46.9,29.66,North,0,0.0,-999.0,96,0.00,,,-99.99,,2013-07-08 14:32:00,
2013-07-08 06:37:00,47.5,46.7,29.66,North,0,0.0,-999.0,96,0.00,,,-99.99,,2013-07-08 14:37:00,
2013-07-08 06:43:00,47.2,46.4,29.66,North,0,0.0,-999.0,96,0.00,,,-99.99,,2013-07-08 14:43:00,
2013-07-08 06:48:00,47.8,47.0,29.66,North,0,0.0,-999.0,97,0.00,,,-99.99,,2013-07-08 14:48:00,
2013-07-08 06:54:00,47.5,46.6,29.66,North,0,0.0,-999.0,96,0.00,,,-99.99,,2013-07-08 14:54:00,
2013-07-08 06:58:00,47.6,46.7,29.66,North,0,0.0,-999.0,96,0.00,,,-99.99,,2013-07-08 14:58:00,
2013-07-08 07:03:00,47.5,46.7,29.67,North,0,0.0,-999.0,96,0.00,,,-99.99,,2013-07-08 15:03:00,
2013-07-08 07:10:00,47.4,46.5,29.67,North,0,0.0,-999.0,96,0.00,,,-99.99,,2013-07-08 15:10:00,
2013-07-08 07:15:00,47.5,46.7,29.67,North,0,0.0,-999.0,96,0.00,,,-99.99,,2013-07-08 15:15:00,
2013-07-08 07:19:00,47.8,47.0,29.67,North,0,0.0,-999.0,96,0.00,,,-99.99,,2013-07-08 15:19:00,
2013-07-08 07:25:00,47.9,47.0,29.67,North,0,0.0,-999.0,96,0.00,,,-99.99,,2013-07-08 15:25:00,
2013-07-08 07:29:00,48.1,47.3,29.67,North,0,0.0,-999.0,96,0.00,,,-99.99,,2013-07-08 15:29:00,
2013-07-08 07:35:00,48.1,47.2,29.67,North,0,0.0,-999.0,96,0.00,,,-99.99,,2013-07-08 15:35:00,
2013-07-08 07:39:00,48.6,47.7,29.67,North,0,0.0,-999.0,96,0.00,,,-99.99,,2013-07-08 15:39:00,
2013-07-08 07:45:00,48.5,47.4,29.67,North,0,0.0,-999.0,96,0.00,,,-99.99,,2013-07-08 15:45:00,
2013-07-08 07:49:00,48.3,47.3,29.67,North,0,0.0,-999.0,96,0.00,,,-99.99,,2013-07-08 15:49:00,
2013-07-08 07:54:00,48.5,47.5,29.67,North,0,0.0,-999.0,96,0.00,,,-99.99,,2013-07-08 15:54:00,
2013-07-08 07:59:00,48.7,47.7,29.67,North,0,0.0,-999.0,96,0.00,,,-99.99,,2013-07-08 15:59:00,
2013-07-08 08:04:00,49.3,48.3,29.67,North,0,0.0,-999.0,96,0.00,,,-99.99,,2013-07-08 16:04:00,
2013-07-08 08:09:00,49.9,48.7,29.67,North,0,0.0,-999.0,95,0.00,,,-99.99,,2013-07-08 16:09:00,
2013-07-08 08:14:00,49.9,48.5,29.67,North,0,0.0,-999.0,94,0.00,,,-99.99,,2013-07-08 16:14:00,
2013-07-08 08:19:00,49.7,48.2,29.67,North,0,0.0,-999.0,94,0.00,,,-99.99,,2013-07-08 16:19:00,
2013-07-08 08:25:00,49.9,48.3,29.67,North,0,0.0,-999.0,94,0.00,,,-99.99,,2013-07-08 16:25:00,
2013-07-08 08:29:00,50.5,48.8,29.67,North,0,0.0,-999.0,93,0.00,,,-99.99,,2013-07-08 16:29:00,
2013-07-08 08:34:00,51.2,49.2,29.67,North,0,0.0,-999.0,92,0.00,,,-99.99,,2013-07-08 16:34:00,
2013-07-08 08:39:00,51.1,48.4,29.67,North,0,0.0,-999.0,90,0.00,,,-99.99,,2013-07-08 16:39:00,
2013-07-08 08:45:00,51.2,48.5,29.67,North,0,0.0,-999.0,90,0.00,,,-99.99,,2013-07-08 16:45:00,
2013-07-08 08:50:00,51.2,48.3,29.67,North,0,0.0,-999.0,89,0.00,,,-99.99,,2013-07-08 16:50:00,
2013-07-08 08:55:00,51.6,47.9,29.67,North,0,0.0,-999.0,87,0.00,,,-99.99,,2013-07-08 16:55:00,
2013-07-08 09:00:00,51.2,47.7,29.69,North,0,0.0,-999.0,87,0.00,,,-99.99,,2013-07-08 17:00:00,
2013-07-08 09:05:00,51.3,48.1,29.69,North,0,0.0,-999.0,88,0.00,,,-99.99,,2013-07-08 17:05:00,
2013-07-08 09:11:00,52.2,48.6,29.69,North,0,0.0,-999.0,87,0.00,,,-99.99,,2013-07-08 17:11:00,
2013-07-08 09:16:00,51.8,48.8,29.69,North,0,0.0,-999.0,89,0.00,,,-99.99,,2013-07-08 17:16:00,
2013-07-08 09:22:00,52.4,49.2,29.69,North,0,0.0,-999.0,88,0.00,,,-99.99,,2013-07-08 17:22:00,
2013-07-08 09:27:00,53.3,49.5,29.69,North,0,0.0,-999.0,86,0.00,,,-99.99,,2013-07-08 17:27:00,
2013-07-08 09:34:00,53.1,48.8,29.69,North,0,0.0,-999.0,85,0.00,,,-99.99,,2013-07-08 17:34:00,
2013-07-08 09:39:00,53.4,49.5,29.69,North,0,0.0,-999.0,86,0.00,,,-99.99,,2013-07-08 17:39:00,
2013-07-08 09:44:00,54.1,49.3,29.69,North,0,0.0,-999.0,83,0.00,,,-99.99,,2013-07-08 17:44:00,
2013-07-08 09:49:00,54.3,47.7,29.69,North,0,0.0,-999.0,78,0.00,,,-99.99,,2013-07-08 17:49:00,
2013-07-08 09:54:00,53.7,47.0,29.69,North,0,0.0,-999.0,77,0.00,,,-99.99,,2013-07-08 17:54:00,
2013-07-08 10:00:00,53.6,48.3,29.71,North,0,0.0,-999.0,82,0.00,,,-99.99,,2013-07-08 18:00:00,
2013-07-08 10:05:00,56.0,49.1,29.71,North,0,0.0,-999.0,77,0.00,,,-99.99,,2013-07-08 18:05:00,
2013-07-08 10:11:00,58.5,48.6,29.71,North,0,0.0,-999.0,69,0.00,,,-99.99,,2013-07-08 18:11:00,
2013-07-08 10:28:00,55.4,46.3,29.71,North,0,0.0,-999.0,71,0.00,,,-99.99,,2013-07-08 18:28:00,
2013-07-08 10:34:00,58.0,48.4,29.71,North,0,0.0,-999.0,70,0.00,,,-99.99,,2013-07-08 18:34:00,
2013-07-08 10:43:00,60.3,47.4,29.71,North,0,0.0,-999.0,62,0.00,,,-99.99,,2013-07-08 18:43:00,
2013-07-08 10:48:00,59.4,48.4,29.71,North,0,0.0,-999.0,66,0.00,,,-99.99,,2013-07-08 18:48:00,
2013-07-08 10:53:00,58.2,46.9,29.71,North,0,0.0,-999.0,65,0.00,,,-99.99,,2013-07-08 18:53:00,
2013-07-08 10:58:00,57.7,46.6,29.71,North,0,0.0,-999.0,66,0.00,,,-99.99,,2013-07-08 18:58:00,
2013-07-08 11:04:00,59.5,49.8,29.70,North,0,0.0,-999.0,70,0.00,,,-99.99,,2013-07-08 19:04:00,
2013-07-08 11:12:00,58.9,47.7,29.70,North,0,0.0,-999.0,66,0.00,,,-99.99,,2013-07-08 19:12:00,
2013-07-08 11:20:00,58.7,46.6,29.70,North,0,0.0,-999.0,64,0.00,,,-99.99,,2013-07-08 19:20:00,
2013-07-08 11:25:00,58.6,47.2,29.70,North,0,0.0,-999.0,65,0.00,,,-99.99,,2013-07-08 19:25:00,
2013-07-08 11:36:00,55.8,46.9,29.70,North,0,0.0,-999.0,72,0.00,,,-99.99,,2013-07-08 19:36:00,
2013-07-08 11:41:00,57.8,48.0,29.70,North,0,0.0,-999.0,69,0.00,,,-99.99,,2013-07-08 19:41:00,
2013-07-08 11:47:00,55.1,46.4,29.70,North,0,0.0,-999.0,72,0.00,,,-99.99,,2013-07-08 19:47:00,
2013-07-08 11:52:00,54.3,46.3,29.70,North,0,0.0,-999.0,74,0.00,,,-99.99,,2013-07-08 19:52:00,
2013-07-08 11:57:00,54.2,46.1,29.70,North,0,0.0,-999.0,74,0.00,,,-99.99,,2013-07-08 19:57:00,
2013-07-08 12:02:00,55.8,46.8,29.71,North,0,0.0,-999.0,71,0.00,,,-99.99,,2013-07-08 20:02:00,
2013-07-08 12:09:00,56.8,46.7,29.71,North,0,0.0,-999.0,68,0.01,,,-99.99,,2013-07-08 20:09:00,
2013-07-08 12:15:00,58.9,47.2,29.71,North,0,0.0,-999.0,65,0.01,,,-99.99,,2013-07-08 20:15:00,
2013-07-08 12:20:00,57.5,47.7,29.71,North,0,0.0,-999.0,69,0.01,,,-99.99,,2013-07-08 20:20:00,
2013-07-08 12:25:00,57.5,47.3,29.71,North,0,0.0,-999.0,68,0.01,,,-99.99,,2013-07-08 20:25:00,
2013-07-08 12:32:00,58.6,47.5,29.71,North,0,0.0,-999.0,66,0.01,,,-99.99,,2013-07-08 20:32:00,
2013-07-08 12:38:00,56.2,47.0,29.71,North,0,0.0,-999.0,71,0.01,,,-99.99,,2013-07-08 20:38:00,
2013-07-08 12:44:00,56.9,46.9,29.71,North,0,0.0,-999.0,69,0.01,,,-99.99,,2013-07-08 20:44:00,
2013-07-08 12:51:00,56.9,47.7,29.71,North,0,0.0,-999.0,71,0.01,,,-99.99,,2013-07-08 20:51:00,
2013-07-08 12:58:00,56.2,47.4,29.71,North,0,0.0,-999.0,72,0.01,,,-99.99,,2013-07-08 20:58:00,
2013-07-08 13:04:00,56.2,47.5,29.73,North,0,0.0,-999.0,72,0.00,,,-99.99,,2013-07-08 21:04:00,
2013-07-08 13:11:00,55.8,46.8,29.73,North,0,0.0,-999.0,71,0.00,,,-99.99,,2013-07-08 21:11:00,
2013-07-08 13:16:00,56.7,47.0,29.73,North,0,0.0,-999.0,70,0.00,,,-99.99,,2013-07-08 21:16:00,
2013-07-08 13:21:00,56.0,47.2,29.73,North,0,0.0,-999.0,72,0.00,,,-99.99,,2013-07-08 21:21:00,
2013-07-08 13:27:00,57.0,47.1,29.73,North,0,0.0,-999.0,69,0.00,,,-99.99,,2013-07-08 21:27:00,
2013-07-08 13:32:00,56.6,46.6,29.73,North,0,0.0,-999.0,68,0.00,,,-99.99,,2013-07-08 21:32:00,
2013-07-08 13:39:00,55.7,46.3,29.73,North,0,0.0,-999.0,70,0.00,,,-99.99,,2013-07-08 21:39:00,
2013-07-08 13:48:00,56.1,46.7,29.73,North,0,0.0,-999.0,70,0.00,,,-99.99,,2013-07-08 21:48:00,
2013-07-08 13:54:00,56.5,46.6,29.73,North,0,0.0,-999.0,69,0.00,,,-99.99,,2013-07-08 21:54:00,
2013-07-08 13:59:00,56.7,45.7,29.75,North,0,0.0,-999.0,66,0.00,,,-99.99,,2013-07-08 21:59:00,
2013-07-08 14:05:00,57.0,45.5,29.75,North,0,0.0,-999.0,65,0.00,,,-99.99,,2013-07-08 22:05:00,
2013-07-08 14:10:00,55.2,45.8,29.75,North,0,0.0,-999.0,70,0.00,,,-99.99,,2013-07-08 22:10:00,
2013-07-08 14:15:00,55.9,46.5,29.75,North,0,0.0,-999.0,70,0.00,,,-99.99,,2013-07-08 22:15:00,
2013-07-08 14:22:00,55.3,46.3,29.75,North,0,0.0,-999.0,71,0.00,,,-99.99,,2013-07-08 22:22:00,
2013-07-08 14:29:00,55.1,46.8,29.75,North,0,0.0,-999.0,73,0.00,,,-99.99,,2013-07-08 22:29:00,
2013-07-08 14:34:00,56.5,47.1,29.75,North,0,0.0,-999.0,70,0.00,,,-99.99,,2013-07-08 22:34:00,
2013-07-08 14:39:00,57.0,46.9,29.75,North,0,0.0,-999.0,68,0.00,,,-99.99,,2013-07-08 22:39:00,
2013-07-08 14:45:00,58.1,47.1,29.75,North,0,0.0,-999.0,66,0.00,,,-99.99,,2013-07-08 22:45:00,
2013-07-08 14:50:00,56.7,47.2,29.75,North,0,0.0,-999.0,70,0.00,,,-99.99,,2013-07-08 22:50:00,
2013-07-08 14:56:00,56.7,47.1,29.75,North,0,0.0,-999.0,70,0.00,,,-99.99,,2013-07-08 22:56:00,
2013-07-08 15:02:00,55.0,46.5,29.75,North,0,0.0,-999.0,73,0.00,,,-99.99,,2013-07-08 23:02:00,
2013-07-08 15:07:00,55.2,47.0,29.75,North,0,0.0,-999.0,73,0.00,,,-99.99,,2013-07-08 23:07:00,
2013-07-08 15:12:00,56.5,47.4,29.75,North,0,0.0,-999.0,71,0.00,,,-99.99,,2013-07-08 23:12:00,
2013-07-08 15:17:00,55.1,46.3,29.75,North,0,0.0,-999.0,72,0.00,,,-99.99,,2013-07-08 23:17:00,
2013-07-08 15:23:00,55.0,45.7,29.75,North,0,0.0,-999.0,70,0.00,,,-99.99,,2013-07-08 23:23:00,
2013-07-08 15:29:00,56.8,46.4,29.75,North,0,0.0,-999.0,67,0.00,,,-99.99,,2013-07-08 23:29:00,
2013-07-08 15:35:00,55.0,45.5,29.75,North,0,0.0,-999.0,70,0.00,,,-99.99,,2013-07-08 23:35:00,
2013-07-08 15:40:00,54.7,45.3,29.75,North,0,0.0,-999.0,70,0.00,,,-99.99,,2013-07-08 23:40:00,
2013-07-08 15:48:00,55.1,46.2,29.75,North,0,0.0,-999.0,71,0.00,,,-99.99,,2013-07-08 23:48:00,
2013-07-08 15:54:00,54.2,46.2,29.75,North,0,0.0,-999.0,74,0.00,,,-99.99,,2013-07-08 23:54:00,
2013-07-08 16:02:00,54.7,45.9,29.75,North,0,0.0,-999.0,72,0.00,,,-99.99,,2013-07-09 00:02:00,
2013-07-08 16:07:00,55.8,46.1,29.75,North,0,0.0,-999.0,69,0.00,,,-99.99,,2013-07-09 00:07:00,
2013-07-08 16:12:00,56.2,45.8,29.75,North,0,0.0,-999.0,67,0.00,,,-99.99,,2013-07-09 00:12:00,
2013-07-08 16:17:00,57.0,47.0,29.75,North,0,0.0,-999.0,68,0.00,,,-99.99,,2013-07-09 00:17:00,
2013-07-08 16:22:00,54.5,44.9,29.75,North,0,0.0,-999.0,70,0.00,,,-99.99,,2013-07-09 00:22:00,
2013-07-08 16:27:00,53.8,45.2,29.75,North,0,0.0,-999.0,72,0.00,,,-99.99,,2013-07-09 00:27:00,
2013-07-08 16:34:00,53.8,45.8,29.75,North,0,0.0,-999.0,74,0.00,,,-99.99,,2013-07-09 00:34:00,
2013-07-08 16:39:00,54.9,46.3,29.75,North,0,0.0,-999.0,72,0.00,,,-99.99,,2013-07-09 00:39:00,
2013-07-08 16:44:00,54.9,45.8,29.75,North,0,0.0,-999.0,71,0.00,,,-99.99,,2013-07-09 00:44:00,
2013-07-08 16:50:00,55.6,46.5,29.75,North,0,0.0,-999.0,71,0.00,,,-99.99,,2013-07-09 00:50:00,
2013-07-08 16:56:00,55.0,46.1,29.75,North,0,0.0,-999.0,71,0.00,,,-99.99,,2013-07-09 00:56:00,
2013-07-08 17:02:00,55.4,45.5,29.76,North,0,0.0,-999.0,69,0.00,,,-99.99,,2013-07-09 01:02:00,
2013-07-08 17:12:00,56.0,46.4,29.76,North,0,0.0,-999.0,70,0.00,,,-99.99,,2013-07-09 01:12:00,
2013-07-08 17:19:00,55.7,46.2,29.76,North,0,0.0,-999.0,70,0.00,,,-99.99,,2013-07-09 01:19:00,
2013-07-08 17:26:00,56.4,46.2,29.76,North,0,0.0,-999.0,68,0.00,,,-99.99,,2013-07-09 01:26:00,
2013-07-08 17:31:00,56.2,46.7,29.76,North,0,0.0,-999.0,70,0.00,,,-99.99,,2013-07-09 01:31:00,
2013-07-08 17:42:00,56.3,46.8,29.76,North,0,0.0,-999.0,70,0.00,,,-99.99,,2013-07-09 01:42:00,
2013-07-08 17:48:00,56.2,46.7,29.76,North,0,0.0,-999.0,70,0.00,,,-99.99,,2013-07-09 01:48:00,
2013-07-08 17:54:00,56.6,47.2,29.76,North,0,0.0,-999.0,70,0.00,,,-99.99,,2013-07-09 01:54:00,
2013-07-08 17:59:00,56.7,46.9,29.77,North,0,0.0,-999.0,69,0.00,,,-99.99,,2013-07-09 01:59:00,
2013-07-08 18:04:00,56.2,45.8,29.77,North,0,0.0,-999.0,68,0.00,,,-99.99,,2013-07-09 02:04:00,
2013-07-08 18:09:00,56.2,45.9,29.77,North,0,0.0,-999.0,68,0.00,,,-99.99,,2013-07-09 02:09:00,
2013-07-08 18:14:00,56.2,45.3,29.77,North,0,0.0,-999.0,66,0.00,,,-99.99,,2013-07-09 02:14:00,
2013-07-08 18:19:00,56.6,45.8,29.77,North,0,0.0,-999.0,66,0.00,,,-99.99,,2013-07-09 02:19:00,
2013-07-08 18:24:00,56.5,45.7,29.77,North,0,0.0,-999.0,66,0.00,,,-99.99,,2013-07-09 02:24:00,
2013-07-08 18:29:00,56.2,45.9,29.77,North,0,0.0,-999.0,68,0.00,,,-99.99,,2013-07-09 02:29:00,
2013-07-08 18:34:00,56.7,46.9,29.77,North,0,0.0,-999.0,69,0.00,,,-99.99,,2013-07-09 02:34:00,
2013-07-08 18:41:00,57.0,46.9,29.77,North,0,0.0,-999.0,68,0.00,,,-99.99,,2013-07-09 02:41:00,
2013-07-08 18:46:00,56.9,46.0,29.77,North,0,0.0,-999.0,66,0.00,,,-99.99,,2013-07-09 02:46:00,
2013-07-08 18:52:00,57.3,46.6,29.77,North,0,0.0,-999.0,67,0.00,,,-99.99,,2013-07-09 02:52:00,
2013-07-08 19:00:00,57.3,46.8,29.77,North,0,0.0,-999.0,67,0.00,,,-99.99,,2013-07-09 03:00:00,
2013-07-08 19:05:00,57.2,46.5,29.77,North,0,0.0,-999.0,67,0.00,,,-99.99,,2013-07-09 03:05:00,
2013-07-08 19:11:00,56.5,46.3,29.77,North,0,0.0,-999.0,68,0.00,,,-99.99,,2013-07-09 03:11:00,
2013-07-08 19:22:00,54.0,45.5,29.77,North,0,0.0,-999.0,72,0.00,,,-99.99,,2013-07-09 03:22:00,
2013-07-08 19:30:00,53.5,45.8,29.77,North,0,0.0,-999.0,74,0.00,,,-99.99,,2013-07-09 03:30:00,
2013-07-08 19:36:00,53.4,46.1,29.77,North,0,0.0,-999.0,76,0.00,,,-99.99,,2013-07-09 03:36:00,
2013-07-08 19:41:00,54.6,47.2,29.77,North,0,0.0,-999.0,75,0.00,,,-99.99,,2013-07-09 03:41:00,
2013-07-08 19:46:00,54.4,46.7,29.77,North,0,0.0,-999.0,75,0.00,,,-99.99,,2013-07-09 03:46:00,
2013-07-08 19:52:00,56.3,47.2,29.77,North,0,0.0,-999.0,71,0.00,,,-99.99,,2013-07-09 03:52:00,
2013-07-08 19:58:00,56.7,47.4,29.77,North,0,0.0,-999.0,70,0.00,,,-99.99,,2013-07-09 03:58:00,
2013-07-08 20:01:00,56.7,47.7,29.77,North,0,0.0,-999.0,71,0.00,,,-99.99,,2013-07-09 04:01:00,
2013-07-08 20:02:00,56.5,47.7,29.77,North,0,0.0,-999.0,72,0.00,,,-99.99,,2013-07-09 04:02:00,
2013-07-08 20:03:00,56.3,47.7,29.77,North,0,0.0,-999.0,72,0.00,,,-99.99,,2013-07-09 04:03:00,
2013-07-08 20:07:00,55.5,46.9,29.77,North,0,0.0,-999.0,72,0.00,,,-99.99,,2013-07-09 04:07:00,
2013-07-08 20:12:00,54.9,46.6,29.77,North,0,0.0,-999.0,73,0.00,,,-99.99,,2013-07-09 04:12:00,
2013-07-08 20:17:00,54.6,45.9,29.77,North,0,0.0,-999.0,72,0.00,,,-99.99,,2013-07-09 04:17:00,
2013-07-08 20:22:00,54.6,46.3,29.77,North,0,0.0,-999.0,73,0.00,,,-99.99,,2013-07-09 04:22:00,
2013-07-08 20:27:00,54.8,46.6,29.77,North,0,0.0,-999.0,73,0.00,,,-99.99,,2013-07-09 04:27:00,
2013-07-08 20:32:00,54.9,46.3,29.77,North,0,0.0,-999.0,72,0.00,,,-99.99,,2013-07-09 04:32:00,
2013-07-08 20:37:00,54.9,46.3,29.77,North,0,0.0,-999.0,72,0.00,,,-99.99,,2013-07-09 04:37:00,
2013-07-08 20:42:00,54.5,46.3,29.77,North,0,0.0,-999.0,73,0.00,,,-99.99,,2013-07-09 04:42:00,
2013-07-08 20:47:00,54.4,46.2,29.77,North,0,0.0,-999.0,73,0.00,,,-99.99,,2013-07-09 04:47:00,
2013-07-08 20:52:00,53.7,46.6,29.77,North,0,0.0,-999.0,76,0.00,,,-99.99,,2013-07-09 04:52:00,
2013-07-08 20:57:00,53.6,45.2,29.77,North,0,0.0,-999.0,73,0.00,,,-99.99,,2013-07-09 04:57:00,
2013-07-08 21:02:00,53.6,46.8,29.79,North,0,0.0,-999.0,77,0.00,,,-99.99,,2013-07-09 05:02:00,
2013-07-08 21:07:00,53.7,47.5,29.79,North,0,0.0,-999.0,79,0.00,,,-99.99,,2013-07-09 05:07:00,
2013-07-08 21:12:00,53.2,46.7,29.79,North,0,0.0,-999.0,78,0.00,,,-99.99,,2013-07-09 05:12:00,
2013-07-08 21:17:00,53.0,45.7,29.79,North,0,0.0,-999.0,76,0.00,,,-99.99,,2013-07-09 05:17:00,
2013-07-08 21:22:00,53.0,45.8,29.79,North,0,0.0,-999.0,76,0.00,,,-99.99,,2013-07-09 05:22:00,
2013-07-08 21:27:00,52.4,45.4,29.79,North,0,0.0,-999.0,76,0.00,,,-99.99,,2013-07-09 05:27:00,
2013-07-08 21:32:00,52.3,44.5,29.79,North,0,0.0,-999.0,74,0.00,,,-99.99,,2013-07-09 05:32:00,
2013-07-08 21:37:00,52.8,45.5,29.79,North,0,0.0,-999.0,76,0.00,,,-99.99,,2013-07-09 05:37:00,
2013-07-08 21:43:00,52.8,46.0,29.79,North,0,0.0,-999.0,77,0.00,,,-99.99,,2013-07-09 05:43:00,
2013-07-08 21:47:00,52.7,46.4,29.79,North,0,0.0,-999.0,79,0.00,,,-99.99,,2013-07-09 05:47:00,
2013-07-08 21:52:00,52.5,46.4,29.79,North,0,0.0,-999.0,79,0.00,,,-99.99,,2013-07-09 05:52:00,
2013-07-08 21:57:00,52.7,46.5,29.79,North,0,0.0,-999.0,79,0.00,,,-99.99,,2013-07-09 05:57:00,
2013-07-08 22:02:00,51.9,46.3,29.79,North,0,0.0,-999.0,80,0.00,,,-99.99,,2013-07-09 06:02:00,
2013-07-08 22:07:00,51.7,46.6,29.79,North,0,0.0,-999.0,82,0.00,,,-99.99,,2013-07-09 06:07:00,
2013-07-08 22:12:00,51.5,46.6,29.79,North,0,0.0,-999.0,83,0.00,,,-99.99,,2013-07-09 06:12:00,
2013-07-08 22:17:00,51.1,46.4,29.79,North,0,0.0,-999.0,83,0.00,,,-99.99,,2013-07-09 06:17:00,
2013-07-08 22:22:00,51.1,46.4,29.79,North,0,0.0,-999.0,83,0.00,,,-99.99,,2013-07-09 06:22:00,
2013-07-08 22:27:00,50.7,46.3,29.79,North,0,0.0,-999.0,84,0.00,,,-99.99,,2013-07-09 06:27:00,
2013-07-08 22:32:00,50.4,46.4,29.79,North,0,0.0,-999.0,86,0.00,,,-99.99,,2013-07-09 06:32:00,
2013-07-08 22:37:00,50.3,46.3,29.79,North,0,0.0,-999.0,86,0.00,,,-99.99,,2013-07-09 06:37:00,
2013-07-08 22:42:00,50.0,46.3,29.79,North,0,0.0,-999.0,87,0.00,,,-99.99,,2013-07-09 06:42:00,
2013-07-08 22:47:00,49.6,46.0,29.79,North,0,0.0,-999.0,87,0.00,,,-99.99,,2013-07-09 06:47:00,
2013-07-08 22:52:00,49.6,46.1,29.79,North,0,0.0,-999.0,87,0.00,,,-99.99,,2013-07-09 06:52:00,
2013-07-08 22:57:00,49.4,46.0,29.79,North,0,0.0,-999.0,87,0.00,,,-99.99,,2013-07-09 06:57:00,
2013-07-08 23:02:00,49.3,45.8,29.80,North,0,0.0,-999.0,87,0.00,,,-99.99,,2013-07-09 07:02:00,
2013-07-08 23:07:00,49.0,45.6,29.80,North,0,0.0,-999.0,87,0.00,,,-99.99,,2013-07-09 07:07:00,
2013-07-08 23:12:00,48.5,45.4,29.80,North,0,0.0,-999.0,88,0.00,,,-99.99,,2013-07-09 07:12:00,
2013-07-08 23:17:00,48.6,45.7,29.80,North,0,0.0,-999.0,89,0.00,,,-99.99,,2013-07-09 07:17:00,
2013-07-08 23:22:00,48.2,45.2,29.80,North,0,0.0,-999.0,89,0.00,,,-99.99,,2013-07-09 07:22:00,
2013-07-08 23:27:00,48.3,45.5,29.80,North,0,0.0,-999.0,90,0.00,,,-99.99,,2013-07-09 07:27:00,
2013-07-08 23:32:00,48.4,45.7,29.80,North,0,0.0,-999.0,90,0.00,,,-99.99,,2013-07-09 07:32:00,
2013-07-08 23:37:00,48.2,45.2,29.80,North,0,0.0,-999.0,89,0.00,,,-99.99,,2013-07-09 07:37:00,
2013-07-08 23:42:00,47.5,44.8,29.80,North,0,0.0,-999.0,90,0.00,,,-99.99,,2013-07-09 07:42:00,
2013-07-08 23:47:00,47.6,45.1,29.80,North,0,0.0,-999.0,90,0.00,,,-99.99,,2013-07-09 07:47:00,
2013-07-08 23:53:00,47.4,44.9,29.80,North,0,0.0,-999.0,91,0.00,,,-99.99,,2013-07-09 07:53:00,
2013-07-08 23:58:00,47.4,44.9,29.80,North,0,0.0,-999.0,91,0.00,,,-99.99,,2013-07-09 07:58:00,